createdAt,value
2017-08-21T04:30:50.753Z,11.80
2017-08-21T04:33:19.038Z,11.80
2017-08-21T04:35:47.326Z,11.80
2017-08-21T04:38:15.699Z,11.80
2017-08-21T04:40:43.971Z,11.80
2017-08-21T04:43:12.223Z,11.80
2017-08-21T04:45:40.499Z,11.80
2017-08-21T04:48:08.814Z,11.90
2017-08-21T04:50:37.175Z,12.00
2017-08-21T04:53:05.422Z,12.00
2017-08-21T04:55:33.704Z,12.00
2017-08-21T04:58:01.970Z,12.10
2017-08-21T05:00:30.283Z,12.10
2017-08-21T05:02:58.563Z,12.10
2017-08-21T05:05:26.955Z,12.10
2017-08-21T05:07:55.214Z,12.20
2017-08-21T05:10:23.495Z,12.30
2017-08-21T05:12:51.766Z,12.40
2017-08-21T05:15:20.239Z,12.40
2017-08-21T05:17:48.526Z,12.50
2017-08-21T05:20:16.927Z,12.60
2017-08-21T05:22:45.514Z,12.70
2017-08-21T05:25:13.866Z,12.80
2017-08-21T05:27:42.123Z,12.80
2017-08-21T05:30:10.424Z,12.90
2017-08-21T05:32:38.719Z,13.00
2017-08-21T05:35:07.075Z,13.00
2017-08-21T05:37:35.352Z,13.10
2017-08-21T05:40:03.963Z,13.20
2017-08-21T05:42:32.330Z,13.30
2017-08-21T05:45:00.690Z,13.40
2017-08-21T05:47:28.986Z,13.50
2017-08-21T05:49:57.346Z,13.60
2017-08-21T05:52:25.711Z,13.60
2017-08-21T05:54:53.963Z,13.80
2017-08-21T05:57:22.277Z,13.90
2017-08-21T05:59:50.555Z,13.80
2017-08-21T06:02:18.838Z,13.80
2017-08-21T06:04:47.106Z,13.70
2017-08-21T06:07:15.386Z,13.70
2017-08-21T06:09:43.662Z,13.70
2017-08-21T06:12:12.043Z,13.60
2017-08-21T06:14:40.294Z,13.50
2017-08-21T06:17:08.823Z,13.50
2017-08-21T06:19:37.083Z,13.40
2017-08-21T06:22:05.368Z,13.40
2017-08-21T06:24:33.614Z,13.40
2017-08-21T06:27:02.008Z,13.40
2017-08-21T06:29:30.347Z,13.60
2017-08-21T15:02:23.675Z,20.90
2017-08-21T15:04:52.884Z,20.90
2017-08-21T15:07:21.277Z,20.80
2017-08-21T15:09:49.510Z,20.80
2017-08-21T15:12:17.794Z,20.80
2017-08-21T15:14:47.115Z,20.80
2017-08-21T15:17:15.495Z,20.80
2017-08-21T15:19:43.747Z,20.90
2017-08-21T15:22:12.046Z,20.80
2017-08-21T15:24:40.318Z,20.90
2017-08-21T15:27:09.624Z,21.00
2017-08-21T15:29:37.875Z,21.00
2017-08-21T15:32:06.127Z,20.90
2017-08-21T15:34:34.413Z,20.80
2017-08-21T15:37:03.383Z,20.80
2017-08-21T15:39:31.667Z,20.90
2017-08-21T15:41:59.994Z,20.90
2017-08-21T15:44:28.370Z,20.80
2017-08-21T15:46:56.659Z,20.70
2017-08-21T15:49:24.963Z,20.80
2017-08-21T15:51:53.948Z,20.90
2017-08-21T15:54:22.311Z,21.00
2017-08-21T15:56:51.603Z,20.90
2017-08-21T15:59:19.978Z,20.80
2017-08-21T16:01:48.234Z,20.70
2017-08-21T16:04:17.455Z,20.70
2017-08-21T16:06:45.749Z,20.80
2017-08-21T16:09:14.114Z,20.90
2017-08-21T16:11:42.405Z,20.90
2017-08-21T16:14:10.775Z,20.90
2017-08-21T16:16:39.153Z,20.70
2017-08-21T16:19:07.480Z,20.40
2017-08-21T16:21:35.799Z,20.20
2017-08-21T16:24:04.081Z,20.20
2017-08-21T16:26:32.687Z,20.10
2017-08-21T16:29:00.971Z,20.00
2017-08-21T16:31:29.314Z,19.90
2017-08-21T16:33:57.604Z,19.80
2017-08-21T16:36:26.826Z,19.80
2017-08-21T16:38:55.176Z,19.70
2017-08-21T16:41:23.462Z,19.70
2017-08-21T16:43:51.728Z,19.60
2017-08-21T16:46:20.062Z,19.60
2017-08-21T16:48:48.315Z,19.50
2017-08-21T16:51:16.624Z,19.40
2017-08-21T16:53:44.934Z,19.30
2017-08-21T16:56:13.218Z,19.20
2017-08-21T16:58:41.587Z,19.20
2017-08-21T17:01:09.967Z,19.10
2017-08-21T17:03:39.500Z,19.10
2017-08-21T17:06:07.779Z,19.10
2017-08-21T17:08:36.043Z,19.10
2017-08-21T17:11:04.419Z,19.00
2017-08-21T17:13:32.680Z,19.00
2017-08-21T17:16:00.951Z,18.90
2017-08-21T17:18:29.350Z,18.80
2017-08-21T17:20:57.611Z,18.80
2017-08-21T17:23:25.987Z,18.70
2017-08-21T17:25:54.011Z,18.70
2017-08-21T17:28:22.058Z,18.60
2017-08-21T17:30:50.322Z,18.60
2017-08-21T17:33:18.603Z,18.60
2017-08-21T17:35:46.864Z,18.50
2017-08-21T17:38:15.238Z,18.50
2017-08-21T17:40:43.516Z,18.50
2017-08-21T17:43:11.795Z,18.30
2017-08-21T17:45:40.062Z,18.20
2017-08-21T17:48:09.270Z,18.20
2017-08-21T17:50:37.544Z,18.10
2017-08-21T17:53:05.925Z,18.10
2017-08-21T17:55:34.198Z,17.90
2017-08-21T17:58:02.579Z,17.90
2017-08-21T18:00:30.839Z,17.70
2017-08-21T18:02:59.122Z,17.70
2017-08-21T18:05:27.428Z,17.60
2017-08-21T18:07:55.698Z,17.60
2017-08-21T18:10:23.950Z,17.50
2017-08-21T18:12:52.987Z,17.40
2017-08-21T18:15:21.358Z,17.40
2017-08-21T18:17:49.725Z,17.40
2017-08-21T18:20:17.959Z,17.30
2017-08-21T18:22:46.263Z,17.20
2017-08-21T18:25:14.537Z,17.10
2017-08-21T18:27:42.815Z,17.00
2017-08-21T18:30:11.091Z,16.90
2017-08-21T18:32:39.384Z,16.70
2017-08-21T18:35:07.651Z,16.70
2017-08-21T18:37:35.943Z,16.60
2017-08-21T18:40:04.235Z,16.60
2017-08-21T18:42:32.495Z,16.60
2017-08-21T18:45:00.869Z,16.60
2017-08-21T18:47:30.135Z,16.40
2017-08-21T18:49:58.444Z,16.30
2017-08-21T18:52:26.712Z,16.20
2017-08-21T18:54:55.099Z,16.10
2017-08-21T18:57:23.363Z,15.90
2017-08-21T18:59:51.663Z,15.80
2017-08-21T19:02:19.930Z,15.60
2017-08-21T19:04:48.204Z,15.50
2017-08-21T19:07:16.455Z,15.40
2017-08-21T19:09:44.739Z,15.30
2017-08-21T19:12:13.119Z,15.10
2017-08-21T19:14:41.515Z,15.10
2017-08-21T19:17:09.759Z,15.00
2017-08-21T19:19:38.159Z,14.80
2017-08-21T19:22:06.431Z,14.80
2017-08-21T19:24:34.710Z,14.70
2017-08-21T19:27:03.104Z,14.70
2017-08-21T19:29:31.362Z,14.60
2017-08-21T19:31:59.738Z,14.50
2017-08-21T19:34:28.021Z,14.50
2017-08-21T19:36:56.413Z,14.50
2017-08-21T19:39:24.676Z,14.60
2017-08-21T19:41:52.951Z,14.60
2017-08-21T19:44:21.222Z,14.50
2017-08-21T19:46:49.518Z,14.50
2017-08-21T19:49:17.782Z,14.50
2017-08-21T19:51:46.163Z,14.60
2017-08-21T19:54:14.419Z,14.40
2017-08-21T19:56:42.707Z,14.30
2017-08-21T19:59:10.962Z,14.30
2017-08-21T20:01:39.244Z,14.40
2017-08-21T20:04:07.531Z,14.40
2017-08-21T20:06:35.807Z,14.30
2017-08-21T20:09:04.107Z,14.20
2017-08-21T20:11:32.489Z,14.30
2017-08-21T20:14:00.770Z,14.20
2017-08-21T20:16:29.755Z,14.40
2017-08-21T20:18:58.118Z,14.80
2017-08-21T20:21:26.407Z,15.20
2017-08-21T20:23:54.675Z,15.10
2017-08-21T20:26:22.967Z,15.10
2017-08-21T20:28:51.208Z,15.10
2017-08-21T20:31:19.608Z,14.90
2017-08-21T20:33:47.866Z,15.00
2017-08-21T20:36:16.146Z,15.10
2017-08-21T20:38:44.764Z,15.20
2017-08-21T20:41:13.126Z,15.20
2017-08-21T20:43:41.400Z,15.20
2017-08-21T20:46:09.774Z,15.30
2017-08-21T20:48:38.069Z,15.20
2017-08-21T20:51:06.435Z,15.10
2017-08-21T20:53:34.806Z,15.00
2017-08-21T20:56:03.523Z,14.90
2017-08-21T20:58:31.875Z,15.00
2017-08-21T21:01:00.163Z,14.90
2017-08-21T21:03:28.658Z,14.80
2017-08-21T21:05:57.250Z,14.70
2017-08-21T21:08:25.541Z,14.80
2017-08-21T21:10:53.873Z,14.90
2017-08-21T21:13:22.147Z,14.90
2017-08-21T21:15:50.414Z,15.00
2017-08-21T21:18:18.707Z,15.00
2017-08-21T21:20:47.690Z,14.90
2017-08-21T21:23:16.070Z,14.80
2017-08-21T21:25:44.360Z,14.60
2017-08-21T21:28:12.728Z,14.60
2017-08-21T21:30:41.007Z,14.60
2017-08-21T21:33:09.386Z,14.50
2017-08-21T21:35:37.663Z,14.60
2017-08-21T21:38:06.055Z,14.50
2017-08-21T21:40:34.314Z,14.50
2017-08-21T21:43:02.594Z,14.30
2017-08-21T21:45:30.885Z,14.20
2017-08-21T21:47:59.142Z,14.20
2017-08-21T21:50:27.854Z,14.20
2017-08-21T21:52:56.327Z,14.10
2017-08-21T21:55:24.614Z,14.00
2017-08-21T21:57:52.971Z,14.00
2017-08-21T22:00:51.179Z,14.00
2017-08-21T22:03:19.429Z,13.90
2017-08-21T22:05:47.716Z,13.90
2017-08-21T22:08:15.967Z,13.90
2017-08-21T22:10:44.267Z,13.90
2017-08-21T22:13:12.511Z,13.70
2017-08-21T22:15:40.802Z,13.70
2017-08-21T22:18:09.094Z,13.60
2017-08-21T22:20:37.359Z,13.50
2017-08-21T22:23:05.626Z,13.40
2017-08-21T22:25:34.867Z,13.40
2017-08-21T22:28:04.130Z,13.30
2017-08-21T22:30:32.506Z,13.30
2017-08-21T22:33:00.788Z,13.30
2017-08-21T22:35:29.158Z,13.30
2017-08-21T22:37:57.415Z,13.20
2017-08-21T22:40:25.716Z,13.10
2017-08-21T22:42:54.011Z,13.10
